KUVA/UVA METAR and TAF weather

Enter ICAO airport designator
Station Type Date Time Source
KUVA METAR 2019/06/27 10:59 UTC NOAA

KUVA 271059Z AUTO 07005KT 7SM BKN007 BKN015 OVC028 23/23 A3012 RMK AO2 LTG DSNT SE


Station Type Date Time Source
KUVA Decoded METAR 2019/06/27 10:59 UTC NOAA

Uvalde, Garner Field Airport, TX, United States (KUVA) 29-12-40N 099-44-36W
Jun 27, 2019 - 06:59 AM EDT / 2019.06.27 1059 UTC
Wind: from the ENE (070 degrees) at 6 MPH (5 KT):0
Visibility: 7 mile(s):0
Sky conditions: overcast
Weather: Lightning observed
Temperature: 73 F (23 C)
Dew Point: 73 F (23 C)
Relative Humidity: 100%
Pressure (altimeter): 30.12 in. Hg (1019 hPa)
ob: KUVA 271059Z AUTO 07005KT 7SM BKN007 BKN015 OVC028 23/23 A3012 RMK AO2 LTG DSNT SE
cycle: 11

Station Type Date Time Source
KUVA TAF UTC NOAA

Error!

Example: see airport list